sensor_id;sensor_type;location;lat;lon;timestamp;temperature;humidity
19256;DHT22;9762;52.490;13.410;2023-06-26T00:00:26;25.80;92.20
19256;DHT22;9762;52.490;13.410;2023-06-26T00:02:52;25.80;91.90
19256;DHT22;9762;52.490;13.410;2023-06-26T00:05:17;25.80;92.30
19256;DHT22;9762;52.490;13.410;2023-06-26T00:07:43;25.80;92.90
19256;DHT22;9762;52.490;13.410;2023-06-26T00:10:09;25.70;94.10
19256;DHT22;9762;52.490;13.410;2023-06-26T00:12:34;25.70;92.30
19256;DHT22;9762;52.490;13.410;2023-06-26T00:15:00;25.70;92.10
19256;DHT22;9762;52.490;13.410;2023-06-26T00:17:26;25.70;92.10
19256;DHT22;9762;52.490;13.410;2023-06-26T00:19:52;25.70;92.20
19256;DHT22;9762;52.490;13.410;2023-06-26T00:22:18;25.70;92.20
19256;DHT22;9762;52.490;13.410;2023-06-26T00:24:44;25.70;92.30
19256;DHT22;9762;52.490;13.410;2023-06-26T00:27:12;25.60;92.30
19256;DHT22;9762;52.490;13.410;2023-06-26T00:29:38;25.60;92.30
19256;DHT22;9762;52.490;13.410;2023-06-26T00:32:04;25.60;92.30
19256;DHT22;9762;52.490;13.410;2023-06-26T00:34:30;25.60;92.30
19256;DHT22;9762;52.490;13.410;2023-06-26T00:36:55;25.60;92.20
19256;DHT22;9762;52.490;13.410;2023-06-26T00:39:21;25.60;92.30
19256;DHT22;9762;52.490;13.410;2023-06-26T00:41:47;25.60;92.30
19256;DHT22;9762;52.490;13.410;2023-06-26T00:44:13;25.60;92.40
19256;DHT22;9762;52.490;13.410;2023-06-26T00:46:38;25.60;92.60
19256;DHT22;9762;52.490;13.410;2023-06-26T00:49:04;25.50;92.40
19256;DHT22;9762;52.490;13.410;2023-06-26T00:51:30;25.50;92.50
19256;DHT22;9762;52.490;13.410;2023-06-26T00:53:57;25.50;92.70
19256;DHT22;9762;52.490;13.410;2023-06-26T00:56:23;25.50;92.70
19256;DHT22;9762;52.490;13.410;2023-06-26T00:58:49;25.50;92.70
19256;DHT22;9762;52.490;13.410;2023-06-26T01:01:15;25.50;92.90
19256;DHT22;9762;52.490;13.410;2023-06-26T01:03:45;25.50;92.80
19256;DHT22;9762;52.490;13.410;2023-06-26T01:06:17;25.50;93.00
19256;DHT22;9762;52.490;13.410;2023-06-26T01:08:44;25.40;93.00
19256;DHT22;9762;52.490;13.410;2023-06-26T01:11:10;25.40;93.00
19256;DHT22;9762;52.490;13.410;2023-06-26T01:13:36;25.40;93.10
19256;DHT22;9762;52.490;13.410;2023-06-26T01:16:02;25.40;93.10
19256;DHT22;9762;52.490;13.410;2023-06-26T01:18:29;25.40;93.50
19256;DHT22;9762;52.490;13.410;2023-06-26T01:20:56;25.40;93.20
19256;DHT22;9762;52.490;13.410;2023-06-26T01:26:22;25.40;93.30
19256;DHT22;9762;52.490;13.410;2023-06-26T01:28:50;25.40;93.30
19256;DHT22;9762;52.490;13.410;2023-06-26T01:31:17;25.40;93.40
19256;DHT22;9762;52.490;13.410;2023-06-26T01:33:43;25.40;93.50
19256;DHT22;9762;52.490;13.410;2023-06-26T01:36:10;25.40;93.50
19256;DHT22;9762;52.490;13.410;2023-06-26T01:38:36;25.40;93.60
19256;DHT22;9762;52.490;13.410;2023-06-26T01:41:02;25.30;93.60
19256;DHT22;9762;52.490;13.410;2023-06-26T01:43:43;25.40;93.70
19256;DHT22;9762;52.490;13.410;2023-06-26T01:46:39;25.30;93.70
19256;DHT22;9762;52.490;13.410;2023-06-26T01:49:18;25.30;93.80
19256;DHT22;9762;52.490;13.410;2023-06-26T01:51:50;25.30;93.90
19256;DHT22;9762;52.490;13.410;2023-06-26T01:54:18;25.30;94.00
19256;DHT22;9762;52.490;13.410;2023-06-26T01:56:49;25.30;94.10
19256;DHT22;9762;52.490;13.410;2023-06-26T01:59:15;25.20;94.10
19256;DHT22;9762;52.490;13.410;2023-06-26T02:01:43;25.20;94.20
19256;DHT22;9762;52.490;13.410;2023-06-26T02:04:08;25.20;94.20
19256;DHT22;9762;52.490;13.410;2023-06-26T02:06:34;25.30;94.30
19256;DHT22;9762;52.490;13.410;2023-06-26T02:09:00;25.30;94.40
19256;DHT22;9762;52.490;13.410;2023-06-26T02:11:25;25.30;94.40
19256;DHT22;9762;52.490;13.410;2023-06-26T02:13:51;25.20;94.50
19256;DHT22;9762;52.490;13.410;2023-06-26T02:16:16;25.20;94.60
19256;DHT22;9762;52.490;13.410;2023-06-26T02:18:42;25.20;94.70
19256;DHT22;9762;52.490;13.410;2023-06-26T02:21:10;25.20;94.70
19256;DHT22;9762;52.490;13.410;2023-06-26T02:23:36;25.20;94.80
19256;DHT22;9762;52.490;13.410;2023-06-26T02:26:02;25.20;94.90
19256;DHT22;9762;52.490;13.410;2023-06-26T02:28:28;25.20;95.00
19256;DHT22;9762;52.490;13.410;2023-06-26T02:30:53;25.20;95.00
19256;DHT22;9762;52.490;13.410;2023-06-26T02:33:19;25.20;95.10
19256;DHT22;9762;52.490;13.410;2023-06-26T02:35:44;25.20;95.10
19256;DHT22;9762;52.490;13.410;2023-06-26T02:38:10;25.20;94.70
19256;DHT22;9762;52.490;13.410;2023-06-26T02:40:37;25.20;94.60
19256;DHT22;9762;52.490;13.410;2023-06-26T02:43:03;25.10;94.60
19256;DHT22;9762;52.490;13.410;2023-06-26T02:45:28;25.10;94.60
19256;DHT22;9762;52.490;13.410;2023-06-26T02:47:54;25.10;94.70
19256;DHT22;9762;52.490;13.410;2023-06-26T02:50:19;25.10;94.70
19256;DHT22;9762;52.490;13.410;2023-06-26T02:52:45;25.00;94.80
19256;DHT22;9762;52.490;13.410;2023-06-26T02:55:13;25.00;94.90
19256;DHT22;9762;52.490;13.410;2023-06-26T02:57:38;25.00;94.80
19256;DHT22;9762;52.490;13.410;2023-06-26T03:00:04;25.00;94.90
19256;DHT22;9762;52.490;13.410;2023-06-26T03:02:33;25.00;94.90
19256;DHT22;9762;52.490;13.410;2023-06-26T03:04:59;25.00;95.00
19256;DHT22;9762;52.490;13.410;2023-06-26T03:07:24;25.00;95.10
19256;DHT22;9762;52.490;13.410;2023-06-26T03:09:50;25.00;95.30
19256;DHT22;9762;52.490;13.410;2023-06-26T03:12:15;24.90;95.40
19256;DHT22;9762;52.490;13.410;2023-06-26T03:14:41;24.90;95.70
19256;DHT22;9762;52.490;13.410;2023-06-26T03:17:07;24.90;95.90
19256;DHT22;9762;52.490;13.410;2023-06-26T03:19:32;24.90;96.00
19256;DHT22;9762;52.490;13.410;2023-06-26T03:21:58;24.90;96.10
19256;DHT22;9762;52.490;13.410;2023-06-26T03:24:24;24.90;96.60
19256;DHT22;9762;52.490;13.410;2023-06-26T03:26:49;24.80;98.10
19256;DHT22;9762;52.490;13.410;2023-06-26T03:29:15;24.80;99.20
19256;DHT22;9762;52.490;13.410;2023-06-26T03:31:40;24.80;99.90
19256;DHT22;9762;52.490;13.410;2023-06-26T03:34:06;24.80;99.90
19256;DHT22;9762;52.490;13.410;2023-06-26T03:36:32;24.80;99.90
19256;DHT22;9762;52.490;13.410;2023-06-26T03:38:57;24.70;99.90
19256;DHT22;9762;52.490;13.410;2023-06-26T03:41:23;24.80;99.90
19256;DHT22;9762;52.490;13.410;2023-06-26T03:43:49;24.80;99.90
19256;DHT22;9762;52.490;13.410;2023-06-26T03:46:15;24.80;99.90
19256;DHT22;9762;52.490;13.410;2023-06-26T03:48:40;24.80;99.90
19256;DHT22;9762;52.490;13.410;2023-06-26T03:51:06;24.80;99.90
19256;DHT22;9762;52.490;13.410;2023-06-26T03:53:33;24.80;99.90
19256;DHT22;9762;52.490;13.410;2023-06-26T03:55:59;24.60;99.90
19256;DHT22;9762;52.490;13.410;2023-06-26T03:58:24;24.80;99.90
19256;DHT22;9762;52.490;13.410;2023-06-26T04:00:50;24.90;99.90
19256;DHT22;9762;52.490;13.410;2023-06-26T04:03:16;24.90;99.90
19256;DHT22;9762;52.490;13.410;2023-06-26T04:05:42;25.00;99.90
19256;DHT22;9762;52.490;13.410;2023-06-26T04:08:08;25.00;99.90
19256;DHT22;9762;52.490;13.410;2023-06-26T04:10:33;25.10;99.90
19256;DHT22;9762;52.490;13.410;2023-06-26T04:12:59;25.10;99.90
19256;DHT22;9762;52.490;13.410;2023-06-26T04:15:25;25.10;99.90
19256;DHT22;9762;52.490;13.410;2023-06-26T04:17:50;25.20;99.90
19256;DHT22;9762;52.490;13.410;2023-06-26T04:20:16;25.20;99.90
19256;DHT22;9762;52.490;13.410;2023-06-26T06:10:11;26.30;99.90
19256;DHT22;9762;52.490;13.410;2023-06-26T06:12:37;26.30;99.90
19256;DHT22;9762;52.490;13.410;2023-06-26T06:15:03;26.30;99.90
19256;DHT22;9762;52.490;13.410;2023-06-26T06:17:29;26.30;99.90
19256;DHT22;9762;52.490;13.410;2023-06-26T06:19:54;26.30;99.90
19256;DHT22;9762;52.490;13.410;2023-06-26T07:08:37;27.20;99.90
19256;DHT22;9762;52.490;13.410;2023-06-26T07:11:03;27.30;99.90
19256;DHT22;9762;52.490;13.410;2023-06-26T07:13:29;27.30;99.90
19256;DHT22;9762;52.490;13.410;2023-06-26T07:15:55;27.30;99.50
19256;DHT22;9762;52.490;13.410;2023-06-26T07:18:20;27.40;99.20
19256;DHT22;9762;52.490;13.410;2023-06-26T07:20:46;27.40;98.70
19256;DHT22;9762;52.490;13.410;2023-06-26T07:23:11;27.50;98.20
19256;DHT22;9762;52.490;13.410;2023-06-26T07:25:37;27.50;97.90
19256;DHT22;9762;52.490;13.410;2023-06-26T07:28:02;27.60;97.50
19256;DHT22;9762;52.490;13.410;2023-06-26T07:30:28;27.60;97.20
19256;DHT22;9762;52.490;13.410;2023-06-26T07:32:54;27.70;97.00
19256;DHT22;9762;52.490;13.410;2023-06-26T07:35:19;27.70;96.70
19256;DHT22;9762;52.490;13.410;2023-06-26T07:37:45;27.80;96.40
19256;DHT22;9762;52.490;13.410;2023-06-26T07:40:11;27.80;96.20
19256;DHT22;9762;52.490;13.410;2023-06-26T07:42:37;27.80;95.90
19256;DHT22;9762;52.490;13.410;2023-06-26T07:45:03;27.90;95.60
19256;DHT22;9762;52.490;13.410;2023-06-26T07:47:35;28.00;95.50
19256;DHT22;9762;52.490;13.410;2023-06-26T07:50:02;28.00;92.80
19256;DHT22;9762;52.490;13.410;2023-06-26T07:52:27;28.10;91.80
19256;DHT22;9762;52.490;13.410;2023-06-26T07:54:53;28.10;91.20
19256;DHT22;9762;52.490;13.410;2023-06-26T07:57:18;28.20;90.30
19256;DHT22;9762;52.490;13.410;2023-06-26T07:59:44;28.30;90.00
19256;DHT22;9762;52.490;13.410;2023-06-26T08:02:10;28.30;89.30
19256;DHT22;9762;52.490;13.410;2023-06-26T08:04:35;28.40;88.80
19256;DHT22;9762;52.490;13.410;2023-06-26T08:07:01;28.40;86.30
19256;DHT22;9762;52.490;13.410;2023-06-26T08:09:28;28.60;84.40
19256;DHT22;9762;52.490;13.410;2023-06-26T08:11:55;28.50;83.10
19256;DHT22;9762;52.490;13.410;2023-06-26T08:14:21;28.60;81.70
19256;DHT22;9762;52.490;13.410;2023-06-26T08:16:46;28.60;81.20
19256;DHT22;9762;52.490;13.410;2023-06-26T08:19:13;28.70;80.20
19256;DHT22;9762;52.490;13.410;2023-06-26T08:21:40;28.70;79.10
19256;DHT22;9762;52.490;13.410;2023-06-26T08:24:06;28.70;78.70
19256;DHT22;9762;52.490;13.410;2023-06-26T08:26:32;28.80;78.00
19256;DHT22;9762;52.490;13.410;2023-06-26T08:28:58;28.90;77.00
19256;DHT22;9762;52.490;13.410;2023-06-26T08:31:23;29.00;76.90
19256;DHT22;9762;52.490;13.410;2023-06-26T08:33:49;29.10;76.60
19256;DHT22;9762;52.490;13.410;2023-06-26T08:36:14;29.10;74.60
19256;DHT22;9762;52.490;13.410;2023-06-26T08:38:40;29.20;74.40
19256;DHT22;9762;52.490;13.410;2023-06-26T08:41:07;29.30;75.00
19256;DHT22;9762;52.490;13.410;2023-06-26T08:43:33;29.30;74.00
19256;DHT22;9762;52.490;13.410;2023-06-26T08:45:59;29.30;72.50
19256;DHT22;9762;52.490;13.410;2023-06-26T08:48:25;29.40;71.80
19256;DHT22;9762;52.490;13.410;2023-06-26T08:50:53;29.40;71.20
19256;DHT22;9762;52.490;13.410;2023-06-26T08:56:07;29.60;69.70
19256;DHT22;9762;52.490;13.410;2023-06-26T08:58:34;29.60;69.60
19256;DHT22;9762;52.490;13.410;2023-06-26T09:01:02;29.70;70.10
19256;DHT22;9762;52.490;13.410;2023-06-26T09:03:29;29.70;69.90
19256;DHT22;9762;52.490;13.410;2023-06-26T09:05:55;29.80;69.90
19256;DHT22;9762;52.490;13.410;2023-06-26T09:08:21;29.80;68.20
19256;DHT22;9762;52.490;13.410;2023-06-26T09:10:47;29.90;69.30
19256;DHT22;9762;52.490;13.410;2023-06-26T09:13:13;29.90;69.50
19256;DHT22;9762;52.490;13.410;2023-06-26T09:15:42;30.00;69.40
19256;DHT22;9762;52.490;13.410;2023-06-26T09:18:08;30.00;69.50
19256;DHT22;9762;52.490;13.410;2023-06-26T09:20:33;30.00;69.50
19256;DHT22;9762;52.490;13.410;2023-06-26T09:23:00;30.00;69.20
19256;DHT22;9762;52.490;13.410;2023-06-26T09:25:26;30.10;68.80
19256;DHT22;9762;52.490;13.410;2023-06-26T09:27:52;30.10;68.60
19256;DHT22;9762;52.490;13.410;2023-06-26T09:30:19;30.10;68.80
19256;DHT22;9762;52.490;13.410;2023-06-26T09:32:45;30.20;68.80
19256;DHT22;9762;52.490;13.410;2023-06-26T09:35:10;30.30;69.00
19256;DHT22;9762;52.490;13.410;2023-06-26T09:37:37;30.40;70.60
19256;DHT22;9762;52.490;13.410;2023-06-26T09:40:03;30.40;70.90
19256;DHT22;9762;52.490;13.410;2023-06-26T09:42:30;30.40;70.90
19256;DHT22;9762;52.490;13.410;2023-06-26T09:44:56;30.40;70.60
19256;DHT22;9762;52.490;13.410;2023-06-26T09:47:22;30.50;69.40
19256;DHT22;9762;52.490;13.410;2023-06-26T09:49:48;30.50;69.60
19256;DHT22;9762;52.490;13.410;2023-06-26T09:52:17;30.50;69.70
19256;DHT22;9762;52.490;13.410;2023-06-26T09:54:43;30.50;68.60
19256;DHT22;9762;52.490;13.410;2023-06-26T09:57:16;30.50;68.20
19256;DHT22;9762;52.490;13.410;2023-06-26T09:59:42;30.60;70.80
19256;DHT22;9762;52.490;13.410;2023-06-26T10:02:09;30.60;70.90
19256;DHT22;9762;52.490;13.410;2023-06-26T10:04:36;30.70;71.50
19256;DHT22;9762;52.490;13.410;2023-06-26T10:07:06;30.70;71.70
19256;DHT22;9762;52.490;13.410;2023-06-26T10:09:33;30.70;72.90
19256;DHT22;9762;52.490;13.410;2023-06-26T10:14:35;30.90;74.20
19256;DHT22;9762;52.490;13.410;2023-06-26T10:17:13;30.90;73.90
19256;DHT22;9762;52.490;13.410;2023-06-26T10:19:43;30.90;72.70
19256;DHT22;9762;52.490;13.410;2023-06-26T10:22:10;31.00;71.30
19256;DHT22;9762;52.490;13.410;2023-06-26T10:24:39;31.00;69.50
19256;DHT22;9762;52.490;13.410;2023-06-26T10:27:17;31.00;70.70
19256;DHT22;9762;52.490;13.410;2023-06-26T10:29:46;31.10;71.30
19256;DHT22;9762;52.490;13.410;2023-06-26T10:32:13;31.10;71.50
19256;DHT22;9762;52.490;13.410;2023-06-26T10:34:39;31.10;70.00
19256;DHT22;9762;52.490;13.410;2023-06-26T10:37:05;31.20;69.70
19256;DHT22;9762;52.490;13.410;2023-06-26T10:39:49;31.20;70.40
19256;DHT22;9762;52.490;13.410;2023-06-26T10:42:16;31.30;71.10
19256;DHT22;9762;52.490;13.410;2023-06-26T10:44:46;31.30;72.70
19256;DHT22;9762;52.490;13.410;2023-06-26T10:47:32;31.40;69.20
19256;DHT22;9762;52.490;13.410;2023-06-26T10:50:24;31.50;69.20
19256;DHT22;9762;52.490;13.410;2023-06-26T10:55:33;31.60;71.00
19256;DHT22;9762;52.490;13.410;2023-06-26T10:58:00;31.80;72.50
19256;DHT22;9762;52.490;13.410;2023-06-26T11:00:27;31.70;69.50
19256;DHT22;9762;52.490;13.410;2023-06-26T11:02:53;31.80;72.20
19256;DHT22;9762;52.490;13.410;2023-06-26T11:05:29;31.90;75.10
19256;DHT22;9762;52.490;13.410;2023-06-26T11:08:10;32.00;76.80
19256;DHT22;9762;52.490;13.410;2023-06-26T11:10:54;32.00;76.70
19256;DHT22;9762;52.490;13.410;2023-06-26T11:13:21;32.20;72.10
19256;DHT22;9762;52.490;13.410;2023-06-26T11:15:47;32.20;66.40
19256;DHT22;9762;52.490;13.410;2023-06-26T11:18:13;32.30;66.00
19256;DHT22;9762;52.490;13.410;2023-06-26T11:20:40;32.40;66.70
19256;DHT22;9762;52.490;13.410;2023-06-26T11:23:05;32.40;62.10
19256;DHT22;9762;52.490;13.410;2023-06-26T11:25:37;32.40;61.10
19256;DHT22;9762;52.490;13.410;2023-06-26T11:28:04;32.60;61.50
19256;DHT22;9762;52.490;13.410;2023-06-26T11:30:30;32.90;60.90
19256;DHT22;9762;52.490;13.410;2023-06-26T11:33:07;32.70;60.50
19256;DHT22;9762;52.490;13.410;2023-06-26T11:35:33;32.80;59.70
19256;DHT22;9762;52.490;13.410;2023-06-26T11:38:00;32.80;60.10
19256;DHT22;9762;52.490;13.410;2023-06-26T11:40:33;32.90;60.50
19256;DHT22;9762;52.490;13.410;2023-06-26T11:42:59;32.90;61.20
19256;DHT22;9762;52.490;13.410;2023-06-26T11:45:29;33.00;61.50
19256;DHT22;9762;52.490;13.410;2023-06-26T11:47:56;33.10;63.10
19256;DHT22;9762;52.490;13.410;2023-06-26T11:50:24;33.20;60.40
19256;DHT22;9762;52.490;13.410;2023-06-26T11:55:20;33.30;62.40
19256;DHT22;9762;52.490;13.410;2023-06-26T11:57:53;33.40;70.10
19256;DHT22;9762;52.490;13.410;2023-06-26T12:02:46;33.60;93.90
19256;DHT22;9762;52.490;13.410;2023-06-26T12:05:13;33.80;67.10
19256;DHT22;9762;52.490;13.410;2023-06-26T12:07:41;33.90;66.90
19256;DHT22;9762;52.490;13.410;2023-06-26T12:10:08;33.90;68.80
19256;DHT22;9762;52.490;13.410;2023-06-26T12:12:34;34.10;72.40
19256;DHT22;9762;52.490;13.410;2023-06-26T12:15:00;34.20;68.00
19256;DHT22;9762;52.490;13.410;2023-06-26T12:17:26;34.30;72.70
19256;DHT22;9762;52.490;13.410;2023-06-26T12:19:52;34.40;74.30
19256;DHT22;9762;52.490;13.410;2023-06-26T12:22:18;34.50;58.60
19256;DHT22;9762;52.490;13.410;2023-06-26T12:24:45;34.50;57.80
19256;DHT22;9762;52.490;13.410;2023-06-26T12:27:12;34.60;56.90
19256;DHT22;9762;52.490;13.410;2023-06-26T12:29:40;34.60;58.00
19256;DHT22;9762;52.490;13.410;2023-06-26T12:39:54;35.00;89.70
19256;DHT22;9762;52.490;13.410;2023-06-26T12:42:22;35.10;68.80
19256;DHT22;9762;52.490;13.410;2023-06-26T12:44:49;35.20;74.90
19256;DHT22;9762;52.490;13.410;2023-06-26T12:47:16;35.20;72.60
19256;DHT22;9762;52.490;13.410;2023-06-26T12:49:44;35.30;71.50
19256;DHT22;9762;52.490;13.410;2023-06-26T12:52:12;35.30;70.30
19256;DHT22;9762;52.490;13.410;2023-06-26T12:54:40;35.30;69.80
19256;DHT22;9762;52.490;13.410;2023-06-26T12:57:07;35.40;70.60
19256;DHT22;9762;52.490;13.410;2023-06-26T12:59:33;35.40;72.70
19256;DHT22;9762;52.490;13.410;2023-06-26T13:01:59;35.40;71.00
19256;DHT22;9762;52.490;13.410;2023-06-26T13:04:26;35.40;70.70
19256;DHT22;9762;52.490;13.410;2023-06-26T13:06:52;35.40;68.80
19256;DHT22;9762;52.490;13.410;2023-06-26T13:09:21;35.40;67.70
19256;DHT22;9762;52.490;13.410;2023-06-26T13:11:46;35.50;67.20
19256;DHT22;9762;52.490;13.410;2023-06-26T13:14:12;35.40;67.20
19256;DHT22;9762;52.490;13.410;2023-06-26T13:16:38;35.40;67.00
19256;DHT22;9762;52.490;13.410;2023-06-26T13:19:04;35.40;67.40
19256;DHT22;9762;52.490;13.410;2023-06-26T13:21:30;35.40;67.20
19256;DHT22;9762;52.490;13.410;2023-06-26T13:23:56;35.30;66.50
19256;DHT22;9762;52.490;13.410;2023-06-26T13:26:22;35.20;67.70
19256;DHT22;9762;52.490;13.410;2023-06-26T13:28:48;35.10;67.70
19256;DHT22;9762;52.490;13.410;2023-06-26T13:31:14;35.00;69.00
19256;DHT22;9762;52.490;13.410;2023-06-26T13:33:40;35.00;71.00
19256;DHT22;9762;52.490;13.410;2023-06-26T13:36:06;34.90;71.20
19256;DHT22;9762;52.490;13.410;2023-06-26T13:38:35;34.80;70.80
19256;DHT22;9762;52.490;13.410;2023-06-26T13:41:01;34.70;71.00
19256;DHT22;9762;52.490;13.410;2023-06-26T13:43:27;34.60;70.50
19256;DHT22;9762;52.490;13.410;2023-06-26T13:45:54;34.50;70.10
19256;DHT22;9762;52.490;13.410;2023-06-26T13:48:20;34.30;70.20
19256;DHT22;9762;52.490;13.410;2023-06-26T13:50:46;34.30;70.50
19256;DHT22;9762;52.490;13.410;2023-06-26T13:53:12;34.20;70.90
19256;DHT22;9762;52.490;13.410;2023-06-26T13:55:39;34.20;71.30
19256;DHT22;9762;52.490;13.410;2023-06-26T13:58:05;34.10;71.30
19256;DHT22;9762;52.490;13.410;2023-06-26T14:00:32;34.10;71.60
19256;DHT22;9762;52.490;13.410;2023-06-26T14:02:59;34.20;71.80
19256;DHT22;9762;52.490;13.410;2023-06-26T14:05:25;34.20;71.10
19256;DHT22;9762;52.490;13.410;2023-06-26T14:07:51;34.10;71.20
19256;DHT22;9762;52.490;13.410;2023-06-26T14:10:16;34.10;71.10
19256;DHT22;9762;52.490;13.410;2023-06-26T14:12:42;34.00;70.90
19256;DHT22;9762;52.490;13.410;2023-06-26T14:15:08;34.00;71.30
19256;DHT22;9762;52.490;13.410;2023-06-26T14:17:33;33.90;71.30
19256;DHT22;9762;52.490;13.410;2023-06-26T14:19:59;33.80;71.10
19256;DHT22;9762;52.490;13.410;2023-06-26T14:22:25;33.60;70.50
19256;DHT22;9762;52.490;13.410;2023-06-26T14:24:51;33.40;72.30
19256;DHT22;9762;52.490;13.410;2023-06-26T14:27:16;33.10;77.90
19256;DHT22;9762;52.490;13.410;2023-06-26T14:29:42;32.50;83.00
19256;DHT22;9762;52.490;13.410;2023-06-26T14:32:07;31.80;89.70
19256;DHT22;9762;52.490;13.410;2023-06-26T14:34:33;31.10;90.80
19256;DHT22;9762;52.490;13.410;2023-06-26T14:36:59;30.20;86.10
19256;DHT22;9762;52.490;13.410;2023-06-26T14:39:25;29.30;94.20
19256;DHT22;9762;52.490;13.410;2023-06-26T14:41:50;28.50;94.00
19256;DHT22;9762;52.490;13.410;2023-06-26T14:46:42;27.50;99.50
19256;DHT22;9762;52.490;13.410;2023-06-26T14:49:08;27.30;99.90
19256;DHT22;9762;52.490;13.410;2023-06-26T14:51:34;27.00;97.60
19256;DHT22;9762;52.490;13.410;2023-06-26T14:54:00;26.80;95.20
19256;DHT22;9762;52.490;13.410;2023-06-26T14:56:26;26.70;95.50
19256;DHT22;9762;52.490;13.410;2023-06-26T14:58:51;26.60;95.50
19256;DHT22;9762;52.490;13.410;2023-06-26T15:01:18;26.50;95.80
19256;DHT22;9762;52.490;13.410;2023-06-26T15:03:48;26.40;96.30
19256;DHT22;9762;52.490;13.410;2023-06-26T15:06:14;26.40;96.90
19256;DHT22;9762;52.490;13.410;2023-06-26T15:08:40;26.30;97.50
19256;DHT22;9762;52.490;13.410;2023-06-26T15:11:05;26.30;97.50
19256;DHT22;9762;52.490;13.410;2023-06-26T15:13:31;26.30;97.60
19256;DHT22;9762;52.490;13.410;2023-06-26T15:15:57;26.20;97.80
19256;DHT22;9762;52.490;13.410;2023-06-26T15:18:22;26.20;97.90
19256;DHT22;9762;52.490;13.410;2023-06-26T15:20:48;26.10;97.80
19256;DHT22;9762;52.490;13.410;2023-06-26T15:23:14;26.10;97.80
19256;DHT22;9762;52.490;13.410;2023-06-26T15:25:39;26.10;97.80
19256;DHT22;9762;52.490;13.410;2023-06-26T15:28:05;26.10;97.80
19256;DHT22;9762;52.490;13.410;2023-06-26T15:30:31;26.10;97.90
19256;DHT22;9762;52.490;13.410;2023-06-26T15:32:57;26.10;97.90
19256;DHT22;9762;52.490;13.410;2023-06-26T15:35:22;26.20;98.20
19256;DHT22;9762;52.490;13.410;2023-06-26T15:37:48;26.20;97.70
19256;DHT22;9762;52.490;13.410;2023-06-26T15:40:15;26.30;97.30
19256;DHT22;9762;52.490;13.410;2023-06-26T15:42:47;26.20;97.10
19256;DHT22;9762;52.490;13.410;2023-06-26T15:45:13;26.20;96.70
19256;DHT22;9762;52.490;13.410;2023-06-26T15:47:40;26.20;96.80
19256;DHT22;9762;52.490;13.410;2023-06-26T15:50:07;26.30;97.00
19256;DHT22;9762;52.490;13.410;2023-06-26T15:52:32;26.30;96.60
19256;DHT22;9762;52.490;13.410;2023-06-26T15:54:58;26.40;96.40
19256;DHT22;9762;52.490;13.410;2023-06-26T15:57:24;26.20;96.20
19256;DHT22;9762;52.490;13.410;2023-06-26T15:59:49;26.30;96.20
19256;DHT22;9762;52.490;13.410;2023-06-26T16:02:15;26.30;96.40
19256;DHT22;9762;52.490;13.410;2023-06-26T16:04:41;26.30;96.30
19256;DHT22;9762;52.490;13.410;2023-06-26T16:07:06;26.30;96.50
19256;DHT22;9762;52.490;13.410;2023-06-26T16:09:32;26.20;96.50
19256;DHT22;9762;52.490;13.410;2023-06-26T16:11:57;26.30;96.60
19256;DHT22;9762;52.490;13.410;2023-06-26T16:14:23;26.30;96.60
19256;DHT22;9762;52.490;13.410;2023-06-26T16:16:48;26.30;96.70
19256;DHT22;9762;52.490;13.410;2023-06-26T16:19:14;26.30;96.80
19256;DHT22;9762;52.490;13.410;2023-06-26T16:21:40;26.40;97.00
19256;DHT22;9762;52.490;13.410;2023-06-26T16:24:05;26.40;97.10
19256;DHT22;9762;52.490;13.410;2023-06-26T16:26:32;26.50;97.10
19256;DHT22;9762;52.490;13.410;2023-06-26T16:28:58;26.60;97.10
19256;DHT22;9762;52.490;13.410;2023-06-26T16:31:24;26.70;97.10
19256;DHT22;9762;52.490;13.410;2023-06-26T16:33:49;26.60;96.80
19256;DHT22;9762;52.490;13.410;2023-06-26T16:36:15;26.70;96.90
19256;DHT22;9762;52.490;13.410;2023-06-26T16:38:40;26.70;96.90
19256;DHT22;9762;52.490;13.410;2023-06-26T16:41:07;26.80;97.00
19256;DHT22;9762;52.490;13.410;2023-06-26T16:43:33;26.80;96.70
19256;DHT22;9762;52.490;13.410;2023-06-26T16:45:59;26.90;96.40
19256;DHT22;9762;52.490;13.410;2023-06-26T16:48:25;26.90;96.20
19256;DHT22;9762;52.490;13.410;2023-06-26T16:50:50;26.90;95.80
19256;DHT22;9762;52.490;13.410;2023-06-26T16:53:16;26.90;95.90
19256;DHT22;9762;52.490;13.410;2023-06-26T16:55:42;26.80;95.50
19256;DHT22;9762;52.490;13.410;2023-06-26T16:58:07;26.80;95.60
19256;DHT22;9762;52.490;13.410;2023-06-26T17:00:33;26.80;95.60
19256;DHT22;9762;52.490;13.410;2023-06-26T17:03:01;26.80;95.70
19256;DHT22;9762;52.490;13.410;2023-06-26T17:05:27;26.80;95.70
19256;DHT22;9762;52.490;13.410;2023-06-26T17:07:54;26.70;95.80
19256;DHT22;9762;52.490;13.410;2023-06-26T17:10:19;26.70;95.90
19256;DHT22;9762;52.490;13.410;2023-06-26T17:12:45;26.80;95.80
19256;DHT22;9762;52.490;13.410;2023-06-26T17:15:10;26.70;95.50
19256;DHT22;9762;52.490;13.410;2023-06-26T17:17:36;26.80;95.50
19256;DHT22;9762;52.490;13.410;2023-06-26T17:20:02;26.70;95.50
19256;DHT22;9762;52.490;13.410;2023-06-26T17:22:35;26.70;95.70
19256;DHT22;9762;52.490;13.410;2023-06-26T17:25:01;26.80;95.70
19256;DHT22;9762;52.490;13.410;2023-06-26T17:27:30;26.80;95.60
19256;DHT22;9762;52.490;13.410;2023-06-26T17:29:56;26.90;95.50
19256;DHT22;9762;52.490;13.410;2023-06-26T17:32:22;26.90;95.30
19256;DHT22;9762;52.490;13.410;2023-06-26T17:34:51;27.00;95.30
19256;DHT22;9762;52.490;13.410;2023-06-26T17:37:20;27.00;95.00
19256;DHT22;9762;52.490;13.410;2023-06-26T17:39:51;26.90;94.80
19256;DHT22;9762;52.490;13.410;2023-06-26T17:42:17;27.00;94.80
19256;DHT22;9762;52.490;13.410;2023-06-26T17:44:43;26.90;94.80
19256;DHT22;9762;52.490;13.410;2023-06-26T17:47:08;26.90;94.50
19256;DHT22;9762;52.490;13.410;2023-06-26T17:49:34;26.90;94.30
19256;DHT22;9762;52.490;13.410;2023-06-26T17:52:00;26.90;94.40
19256;DHT22;9762;52.490;13.410;2023-06-26T17:54:30;26.90;94.50
19256;DHT22;9762;52.490;13.410;2023-06-26T17:56:55;26.90;94.50
19256;DHT22;9762;52.490;13.410;2023-06-26T17:59:21;26.90;94.10
19256;DHT22;9762;52.490;13.410;2023-06-26T18:01:47;26.90;94.40
19256;DHT22;9762;52.490;13.410;2023-06-26T18:04:12;26.90;94.40
19256;DHT22;9762;52.490;13.410;2023-06-26T18:06:38;26.90;94.40
19256;DHT22;9762;52.490;13.410;2023-06-26T18:09:04;26.90;94.40
19256;DHT22;9762;52.490;13.410;2023-06-26T18:11:34;26.90;94.20
19256;DHT22;9762;52.490;13.410;2023-06-26T18:14:03;26.90;94.20
19256;DHT22;9762;52.490;13.410;2023-06-26T18:16:29;26.90;94.00
19256;DHT22;9762;52.490;13.410;2023-06-26T18:18:56;26.90;94.20
19256;DHT22;9762;52.490;13.410;2023-06-26T18:21:24;26.80;93.60
19256;DHT22;9762;52.490;13.410;2023-06-26T18:23:50;26.80;93.60
19256;DHT22;9762;52.490;13.410;2023-06-26T18:26:19;26.80;93.70